Карточка аэропорта ULAA

Внимание!
Информация на этой странице в стадии наполнения.
Если вы не увидели какой-то информации, или заметили неточность - пожалуйста сообщите нам!
Спасибо!
Команда RU-STAFF
Название аэропортаТалаги
Название аэропорта (англ.)Talagi
Превышение62 ft. (18.9 m.)
Координаты64°36.018', 40°43.002'
Высота перехода3000FT
Эшелон переходаQFE>=760mm:FL040; QFE<760=>733:FL050; QFE<733:FL060
Коды ответчика3120-3127
Зона ОрВДСанкт-Петербург РПИ (ULLL)
Данные METARULAA 271100Z 18002MPS 130V250 9999 -SHSN BKN010CB M09/M11 Q1004 R26/490534 NOSIG RMK QFE751/1002
Проноз погоды (TAF)C0R ULAA 221700Z 2218/2318 05003G08MPS 2100 -SHSN BR BKN004 BKN011CB TEMPO 2218/2224 02004G12MPS 0500 +SHSN BKN002 BKN010CB FM230000 02003MPS 6000 BKN013 TEMPO 2300/2306 03003MPS 0300 -SHSN FZFG BKN002 BKN010CB
NOTAMshow/hide NOTAM
AWOS   TABLE

Информация о ВПП


Диспетчерские позиции

Позывной Наименование органа УВД Частота
ULAA_APPАрхангельск-Подход122.0
ULAA_TWRАрхангельск-Вышка121.8



Спутниковое изображение